sensor_id;sensor_type;location;lat;lon;timestamp;pressure;altitude;pressure_sealevel;temperature
12918;BMP180;6526;54.312;13.092;2023-11-21T00:01:20;101410.00;;;10.40
12918;BMP180;6526;54.312;13.092;2023-11-21T00:03:46;101422.00;;;10.30
12918;BMP180;6526;54.312;13.092;2023-11-21T00:06:12;101429.00;;;10.30
12918;BMP180;6526;54.312;13.092;2023-11-21T00:08:38;101429.00;;;10.40
12918;BMP180;6526;54.312;13.092;2023-11-21T00:11:05;101432.00;;;10.40
12918;BMP180;6526;54.312;13.092;2023-11-21T00:13:32;101437.00;;;10.40
12918;BMP180;6526;54.312;13.092;2023-11-21T00:15:58;101444.00;;;10.40
12918;BMP180;6526;54.312;13.092;2023-11-21T00:18:24;101436.00;;;10.40
12918;BMP180;6526;54.312;13.092;2023-11-21T00:20:50;101463.00;;;10.30
12918;BMP180;6526;54.312;13.092;2023-11-21T00:23:16;101442.00;;;10.40
12918;BMP180;6526;54.312;13.092;2023-11-21T00:25:44;101444.00;;;10.40
12918;BMP180;6526;54.312;13.092;2023-11-21T00:28:10;101445.00;;;10.40
12918;BMP180;6526;54.312;13.092;2023-11-21T00:30:36;101459.00;;;10.40
12918;BMP180;6526;54.312;13.092;2023-11-21T00:33:02;101456.00;;;10.30
12918;BMP180;6526;54.312;13.092;2023-11-21T00:35:28;101456.00;;;10.30
12918;BMP180;6526;54.312;13.092;2023-11-21T00:37:54;101450.00;;;10.40
12918;BMP180;6526;54.312;13.092;2023-11-21T00:40:20;101456.00;;;10.40
12918;BMP180;6526;54.312;13.092;2023-11-21T00:42:47;101462.00;;;10.50
12918;BMP180;6526;54.312;13.092;2023-11-21T00:45:13;101457.00;;;10.40
12918;BMP180;6526;54.312;13.092;2023-11-21T00:47:39;101456.00;;;10.40
12918;BMP180;6526;54.312;13.092;2023-11-21T00:50:05;101464.00;;;10.40
12918;BMP180;6526;54.312;13.092;2023-11-21T00:52:32;101476.00;;;10.40
12918;BMP180;6526;54.312;13.092;2023-11-21T00:54:58;101475.00;;;10.40
12918;BMP180;6526;54.312;13.092;2023-11-21T00:57:26;101469.00;;;10.30
12918;BMP180;6526;54.312;13.092;2023-11-21T00:59:52;101476.00;;;10.30
12918;BMP180;6526;54.312;13.092;2023-11-21T01:02:18;101473.00;;;10.30
12918;BMP180;6526;54.312;13.092;2023-11-21T01:04:44;101469.00;;;10.30
12918;BMP180;6526;54.312;13.092;2023-11-21T01:07:10;101481.00;;;10.30
12918;BMP180;6526;54.312;13.092;2023-11-21T01:09:36;101479.00;;;10.30
12918;BMP180;6526;54.312;13.092;2023-11-21T01:12:03;101473.00;;;10.30
12918;BMP180;6526;54.312;13.092;2023-11-21T01:14:29;101479.00;;;10.30
12918;BMP180;6526;54.312;13.092;2023-11-21T01:16:55;101482.00;;;10.40
12918;BMP180;6526;54.312;13.092;2023-11-21T01:19:21;101496.00;;;10.40
12918;BMP180;6526;54.312;13.092;2023-11-21T01:21:47;101487.00;;;10.50
12918;BMP180;6526;54.312;13.092;2023-11-21T01:24:13;101495.00;;;10.40
12918;BMP180;6526;54.312;13.092;2023-11-21T01:26:39;101492.00;;;10.30
12918;BMP180;6526;54.312;13.092;2023-11-21T01:29:05;101490.00;;;10.30
12918;BMP180;6526;54.312;13.092;2023-11-21T01:31:31;101496.00;;;10.30
12918;BMP180;6526;54.312;13.092;2023-11-21T01:33:57;101497.00;;;10.30
12918;BMP180;6526;54.312;13.092;2023-11-21T01:36:30;101506.00;;;10.30
12918;BMP180;6526;54.312;13.092;2023-11-21T01:38:58;101515.00;;;10.30
12918;BMP180;6526;54.312;13.092;2023-11-21T01:41:28;101505.00;;;10.30
12918;BMP180;6526;54.312;13.092;2023-11-21T01:43:55;101512.00;;;10.30
12918;BMP180;6526;54.312;13.092;2023-11-21T01:46:21;101505.00;;;10.30
12918;BMP180;6526;54.312;13.092;2023-11-21T01:48:49;101495.00;;;10.30
12918;BMP180;6526;54.312;13.092;2023-11-21T01:51:15;101507.00;;;10.40
12918;BMP180;6526;54.312;13.092;2023-11-21T01:53:42;101500.00;;;10.40
12918;BMP180;6526;54.312;13.092;2023-11-21T01:56:09;101511.00;;;10.40
12918;BMP180;6526;54.312;13.092;2023-11-21T01:58:35;101513.00;;;10.40
12918;BMP180;6526;54.312;13.092;2023-11-21T02:01:01;101467.00;;;10.50
12918;BMP180;6526;54.312;13.092;2023-11-21T02:03:27;101527.00;;;10.40
12918;BMP180;6526;54.312;13.092;2023-11-21T02:05:54;101525.00;;;10.30
12918;BMP180;6526;54.312;13.092;2023-11-21T02:08:22;101534.00;;;10.40
12918;BMP180;6526;54.312;13.092;2023-11-21T02:10:48;101536.00;;;10.30
12918;BMP180;6526;54.312;13.092;2023-11-21T02:13:15;101542.00;;;10.30
12918;BMP180;6526;54.312;13.092;2023-11-21T02:15:42;101537.00;;;10.30
12918;BMP180;6526;54.312;13.092;2023-11-21T02:18:08;101540.00;;;10.30
12918;BMP180;6526;54.312;13.092;2023-11-21T02:20:35;101553.00;;;10.30
12918;BMP180;6526;54.312;13.092;2023-11-21T02:23:04;101553.00;;;10.30
12918;BMP180;6526;54.312;13.092;2023-11-21T02:25:32;101553.00;;;10.30
12918;BMP180;6526;54.312;13.092;2023-11-21T02:28:00;101558.00;;;10.30
12918;BMP180;6526;54.312;13.092;2023-11-21T02:30:27;101561.00;;;10.30
12918;BMP180;6526;54.312;13.092;2023-11-21T02:32:54;101560.00;;;10.20
12918;BMP180;6526;54.312;13.092;2023-11-21T02:35:20;101566.00;;;10.20
12918;BMP180;6526;54.312;13.092;2023-11-21T02:37:47;101562.00;;;10.20
12918;BMP180;6526;54.312;13.092;2023-11-21T02:40:13;101561.00;;;10.20
12918;BMP180;6526;54.312;13.092;2023-11-21T02:42:43;101563.00;;;10.10
12918;BMP180;6526;54.312;13.092;2023-11-21T02:45:10;101587.00;;;10.10
12918;BMP180;6526;54.312;13.092;2023-11-21T02:47:39;101574.00;;;10.20
12918;BMP180;6526;54.312;13.092;2023-11-21T02:50:06;101579.00;;;10.20
12918;BMP180;6526;54.312;13.092;2023-11-21T02:52:35;101576.00;;;10.20
12918;BMP180;6526;54.312;13.092;2023-11-21T02:55:02;101575.00;;;10.20
12918;BMP180;6526;54.312;13.092;2023-11-21T02:57:28;101581.00;;;10.10
12918;BMP180;6526;54.312;13.092;2023-11-21T02:59:54;101586.00;;;10.20
12918;BMP180;6526;54.312;13.092;2023-11-21T03:02:21;101588.00;;;10.10
12918;BMP180;6526;54.312;13.092;2023-11-21T03:04:47;101594.00;;;10.10
12918;BMP180;6526;54.312;13.092;2023-11-21T03:07:15;101589.00;;;10.10
12918;BMP180;6526;54.312;13.092;2023-11-21T03:09:41;101590.00;;;10.10
12918;BMP180;6526;54.312;13.092;2023-11-21T03:12:09;101586.00;;;10.10
12918;BMP180;6526;54.312;13.092;2023-11-21T03:14:35;101602.00;;;10.20
12918;BMP180;6526;54.312;13.092;2023-11-21T03:17:01;101601.00;;;10.30
12918;BMP180;6526;54.312;13.092;2023-11-21T03:19:30;101608.00;;;10.20
12918;BMP180;6526;54.312;13.092;2023-11-21T03:21:56;101623.00;;;10.20
12918;BMP180;6526;54.312;13.092;2023-11-21T03:24:22;101619.00;;;10.30
12918;BMP180;6526;54.312;13.092;2023-11-21T03:26:49;101630.00;;;10.20
12918;BMP180;6526;54.312;13.092;2023-11-21T03:29:16;101629.00;;;10.20
12918;BMP180;6526;54.312;13.092;2023-11-21T03:31:42;101639.00;;;10.20
12918;BMP180;6526;54.312;13.092;2023-11-21T03:34:14;101631.00;;;10.10
12918;BMP180;6526;54.312;13.092;2023-11-21T03:36:40;101641.00;;;10.20
12918;BMP180;6526;54.312;13.092;2023-11-21T03:39:06;101644.00;;;10.20
12918;BMP180;6526;54.312;13.092;2023-11-21T03:41:32;101649.00;;;10.10
12918;BMP180;6526;54.312;13.092;2023-11-21T03:43:59;101657.00;;;10.00
12918;BMP180;6526;54.312;13.092;2023-11-21T03:46:26;101657.00;;;10.00
12918;BMP180;6526;54.312;13.092;2023-11-21T03:48:52;101662.00;;;10.00
12918;BMP180;6526;54.312;13.092;2023-11-21T03:51:18;101665.00;;;9.90
12918;BMP180;6526;54.312;13.092;2023-11-21T03:53:44;101666.00;;;9.90
12918;BMP180;6526;54.312;13.092;2023-11-21T03:56:10;101661.00;;;9.90
12918;BMP180;6526;54.312;13.092;2023-11-21T03:58:36;101664.00;;;9.90
12918;BMP180;6526;54.312;13.092;2023-11-21T04:01:02;101666.00;;;9.90
12918;BMP180;6526;54.312;13.092;2023-11-21T04:03:28;101678.00;;;9.90
12918;BMP180;6526;54.312;13.092;2023-11-21T04:05:55;101684.00;;;9.90
12918;BMP180;6526;54.312;13.092;2023-11-21T04:08:21;101634.00;;;10.00
12918;BMP180;6526;54.312;13.092;2023-11-21T04:10:47;101627.00;;;9.90
12918;BMP180;6526;54.312;13.092;2023-11-21T04:13:14;101677.00;;;9.90
12918;BMP180;6526;54.312;13.092;2023-11-21T04:15:40;101682.00;;;9.90
12918;BMP180;6526;54.312;13.092;2023-11-21T04:18:06;101690.00;;;9.90
12918;BMP180;6526;54.312;13.092;2023-11-21T04:20:32;101679.00;;;10.00
12918;BMP180;6526;54.312;13.092;2023-11-21T04:22:58;101696.00;;;10.00
12918;BMP180;6526;54.312;13.092;2023-11-21T04:25:24;101684.00;;;9.90
12918;BMP180;6526;54.312;13.092;2023-11-21T04:27:51;101688.00;;;9.70
12918;BMP180;6526;54.312;13.092;2023-11-21T04:30:17;101682.00;;;9.90
12918;BMP180;6526;54.312;13.092;2023-11-21T04:32:43;101692.00;;;9.90
12918;BMP180;6526;54.312;13.092;2023-11-21T04:35:09;101695.00;;;9.90
12918;BMP180;6526;54.312;13.092;2023-11-21T04:37:36;101701.00;;;9.80
12918;BMP180;6526;54.312;13.092;2023-11-21T04:40:03;101707.00;;;9.70
12918;BMP180;6526;54.312;13.092;2023-11-21T04:42:34;101674.00;;;9.70
12918;BMP180;6526;54.312;13.092;2023-11-21T04:45:00;101704.00;;;9.70
12918;BMP180;6526;54.312;13.092;2023-11-21T04:47:27;101712.00;;;9.80
12918;BMP180;6526;54.312;13.092;2023-11-21T04:49:53;101713.00;;;9.70
12918;BMP180;6526;54.312;13.092;2023-11-21T04:52:19;101637.00;;;9.80
12918;BMP180;6526;54.312;13.092;2023-11-21T04:54:46;101710.00;;;9.80
12918;BMP180;6526;54.312;13.092;2023-11-21T04:57:12;101720.00;;;9.80
12918;BMP180;6526;54.312;13.092;2023-11-21T04:59:38;101713.00;;;9.80
12918;BMP180;6526;54.312;13.092;2023-11-21T05:02:04;101729.00;;;9.70
12918;BMP180;6526;54.312;13.092;2023-11-21T05:04:31;101730.00;;;9.80
12918;BMP180;6526;54.312;13.092;2023-11-21T05:06:57;101727.00;;;9.80
12918;BMP180;6526;54.312;13.092;2023-11-21T05:09:23;101735.00;;;9.80
12918;BMP180;6526;54.312;13.092;2023-11-21T05:11:49;101740.00;;;9.80
12918;BMP180;6526;54.312;13.092;2023-11-21T05:14:15;101751.00;;;9.80
12918;BMP180;6526;54.312;13.092;2023-11-21T05:16:41;101733.00;;;9.70
12918;BMP180;6526;54.312;13.092;2023-11-21T05:19:07;101739.00;;;9.70
12918;BMP180;6526;54.312;13.092;2023-11-21T05:21:33;101753.00;;;9.70
12918;BMP180;6526;54.312;13.092;2023-11-21T05:23:59;101749.00;;;9.70
12918;BMP180;6526;54.312;13.092;2023-11-21T05:26:25;101725.00;;;9.70
12918;BMP180;6526;54.312;13.092;2023-11-21T05:28:51;101753.00;;;9.70
12918;BMP180;6526;54.312;13.092;2023-11-21T05:31:17;101763.00;;;9.80
12918;BMP180;6526;54.312;13.092;2023-11-21T05:33:44;101758.00;;;9.70
12918;BMP180;6526;54.312;13.092;2023-11-21T05:36:10;101761.00;;;9.70
12918;BMP180;6526;54.312;13.092;2023-11-21T05:38:37;101770.00;;;9.80
12918;BMP180;6526;54.312;13.092;2023-11-21T05:41:03;101768.00;;;9.80
12918;BMP180;6526;54.312;13.092;2023-11-21T05:43:30;101780.00;;;9.80
12918;BMP180;6526;54.312;13.092;2023-11-21T05:45:56;101769.00;;;9.80
12918;BMP180;6526;54.312;13.092;2023-11-21T05:48:22;101776.00;;;9.80
12918;BMP180;6526;54.312;13.092;2023-11-21T05:50:49;101791.00;;;9.90
12918;BMP180;6526;54.312;13.092;2023-11-21T05:53:15;101783.00;;;9.90
12918;BMP180;6526;54.312;13.092;2023-11-21T05:55:42;101792.00;;;9.90
12918;BMP180;6526;54.312;13.092;2023-11-21T05:58:08;101805.00;;;9.90
12918;BMP180;6526;54.312;13.092;2023-11-21T06:00:34;101815.00;;;9.90
12918;BMP180;6526;54.312;13.092;2023-11-21T06:03:00;101799.00;;;9.90
12918;BMP180;6526;54.312;13.092;2023-11-21T06:05:26;101814.00;;;9.90
12918;BMP180;6526;54.312;13.092;2023-11-21T06:07:54;101819.00;;;9.90
12918;BMP180;6526;54.312;13.092;2023-11-21T06:10:21;101825.00;;;9.90
12918;BMP180;6526;54.312;13.092;2023-11-21T06:12:47;101823.00;;;9.80
12918;BMP180;6526;54.312;13.092;2023-11-21T06:15:14;101825.00;;;9.80
12918;BMP180;6526;54.312;13.092;2023-11-21T06:17:41;101841.00;;;9.80
12918;BMP180;6526;54.312;13.092;2023-11-21T06:20:09;101834.00;;;9.90
12918;BMP180;6526;54.312;13.092;2023-11-21T06:22:39;101836.00;;;9.80
12918;BMP180;6526;54.312;13.092;2023-11-21T06:25:06;101832.00;;;9.80
12918;BMP180;6526;54.312;13.092;2023-11-21T06:27:36;101837.00;;;9.80
12918;BMP180;6526;54.312;13.092;2023-11-21T06:30:02;101850.00;;;9.60
12918;BMP180;6526;54.312;13.092;2023-11-21T06:32:30;101849.00;;;9.50
12918;BMP180;6526;54.312;13.092;2023-11-21T06:34:59;101862.00;;;9.50
12918;BMP180;6526;54.312;13.092;2023-11-21T06:37:29;101864.00;;;9.50
12918;BMP180;6526;54.312;13.092;2023-11-21T06:39:55;101870.00;;;9.50
12918;BMP180;6526;54.312;13.092;2023-11-21T06:42:22;101873.00;;;9.10
12918;BMP180;6526;54.312;13.092;2023-11-21T06:44:50;101874.00;;;9.30
12918;BMP180;6526;54.312;13.092;2023-11-21T06:47:25;101874.00;;;9.30
12918;BMP180;6526;54.312;13.092;2023-11-21T06:49:52;101892.00;;;9.30
12918;BMP180;6526;54.312;13.092;2023-11-21T06:52:19;101878.00;;;9.30
12918;BMP180;6526;54.312;13.092;2023-11-21T06:54:46;101879.00;;;9.20
12918;BMP180;6526;54.312;13.092;2023-11-21T06:57:13;101889.00;;;9.30
12918;BMP180;6526;54.312;13.092;2023-11-21T06:59:39;101885.00;;;9.30
12918;BMP180;6526;54.312;13.092;2023-11-21T07:02:05;101885.00;;;9.30
12918;BMP180;6526;54.312;13.092;2023-11-21T07:04:33;101900.00;;;9.30
12918;BMP180;6526;54.312;13.092;2023-11-21T07:06:59;101892.00;;;9.30
12918;BMP180;6526;54.312;13.092;2023-11-21T07:09:25;101902.00;;;9.40
12918;BMP180;6526;54.312;13.092;2023-11-21T07:11:52;101898.00;;;9.30
12918;BMP180;6526;54.312;13.092;2023-11-21T07:14:18;101913.00;;;9.40
12918;BMP180;6526;54.312;13.092;2023-11-21T07:16:46;101921.00;;;9.50
12918;BMP180;6526;54.312;13.092;2023-11-21T07:19:12;101923.00;;;9.40
12918;BMP180;6526;54.312;13.092;2023-11-21T07:21:39;101936.00;;;9.40
12918;BMP180;6526;54.312;13.092;2023-11-21T07:24:06;101939.00;;;9.50
12918;BMP180;6526;54.312;13.092;2023-11-21T07:26:33;101939.00;;;9.40
12918;BMP180;6526;54.312;13.092;2023-11-21T07:29:00;101949.00;;;9.30
12918;BMP180;6526;54.312;13.092;2023-11-21T07:31:26;101947.00;;;9.30
12918;BMP180;6526;54.312;13.092;2023-11-21T07:33:52;101952.00;;;9.30
12918;BMP180;6526;54.312;13.092;2023-11-21T07:36:19;101954.00;;;9.30
12918;BMP180;6526;54.312;13.092;2023-11-21T07:38:46;101971.00;;;9.30
12918;BMP180;6526;54.312;13.092;2023-11-21T07:41:13;101970.00;;;9.40
12918;BMP180;6526;54.312;13.092;2023-11-21T07:43:43;101974.00;;;9.30
12918;BMP180;6526;54.312;13.092;2023-11-21T07:46:09;101958.00;;;9.30
12918;BMP180;6526;54.312;13.092;2023-11-21T07:48:35;101980.00;;;9.30
12918;BMP180;6526;54.312;13.092;2023-11-21T07:51:02;101980.00;;;9.30
12918;BMP180;6526;54.312;13.092;2023-11-21T07:53:29;101971.00;;;9.30
12918;BMP180;6526;54.312;13.092;2023-11-21T07:55:58;101984.00;;;9.30
12918;BMP180;6526;54.312;13.092;2023-11-21T07:58:24;101981.00;;;9.30
12918;BMP180;6526;54.312;13.092;2023-11-21T08:00:50;101984.00;;;9.30
12918;BMP180;6526;54.312;13.092;2023-11-21T08:03:16;101990.00;;;9.20
12918;BMP180;6526;54.312;13.092;2023-11-21T08:05:42;101988.00;;;9.30
12918;BMP180;6526;54.312;13.092;2023-11-21T08:08:09;101990.00;;;9.30
12918;BMP180;6526;54.312;13.092;2023-11-21T08:10:35;101999.00;;;9.40
12918;BMP180;6526;54.312;13.092;2023-11-21T08:13:02;101995.00;;;9.30
12918;BMP180;6526;54.312;13.092;2023-11-21T08:15:28;101993.00;;;9.40
12918;BMP180;6526;54.312;13.092;2023-11-21T08:17:54;102008.00;;;9.50
12918;BMP180;6526;54.312;13.092;2023-11-21T08:20:20;102004.00;;;9.50
12918;BMP180;6526;54.312;13.092;2023-11-21T08:22:48;102000.00;;;9.50
12918;BMP180;6526;54.312;13.092;2023-11-21T08:25:14;102007.00;;;9.40
12918;BMP180;6526;54.312;13.092;2023-11-21T08:27:41;102012.00;;;9.40
12918;BMP180;6526;54.312;13.092;2023-11-21T08:30:07;102007.00;;;9.40
12918;BMP180;6526;54.312;13.092;2023-11-21T08:32:33;102013.00;;;9.50
12918;BMP180;6526;54.312;13.092;2023-11-21T08:35:01;102009.00;;;9.50
12918;BMP180;6526;54.312;13.092;2023-11-21T08:37:27;102021.00;;;9.50
12918;BMP180;6526;54.312;13.092;2023-11-21T08:39:57;102028.00;;;9.50
12918;BMP180;6526;54.312;13.092;2023-11-21T08:42:23;102028.00;;;9.50
12918;BMP180;6526;54.312;13.092;2023-11-21T08:44:49;102022.00;;;9.40
12918;BMP180;6526;54.312;13.092;2023-11-21T08:47:17;102025.00;;;9.50
12918;BMP180;6526;54.312;13.092;2023-11-21T08:49:43;102028.00;;;9.50
12918;BMP180;6526;54.312;13.092;2023-11-21T08:52:08;102035.00;;;9.60
12918;BMP180;6526;54.312;13.092;2023-11-21T08:54:35;102034.00;;;9.60
12918;BMP180;6526;54.312;13.092;2023-11-21T08:57:02;102044.00;;;9.60
12918;BMP180;6526;54.312;13.092;2023-11-21T08:59:28;102053.00;;;9.50
12918;BMP180;6526;54.312;13.092;2023-11-21T09:01:54;102054.00;;;9.60
12918;BMP180;6526;54.312;13.092;2023-11-21T09:04:20;102058.00;;;9.60
12918;BMP180;6526;54.312;13.092;2023-11-21T09:06:46;102053.00;;;9.60
12918;BMP180;6526;54.312;13.092;2023-11-21T09:09:12;102065.00;;;9.60
12918;BMP180;6526;54.312;13.092;2023-11-21T09:11:38;102073.00;;;9.70
12918;BMP180;6526;54.312;13.092;2023-11-21T09:14:05;102073.00;;;9.80
12918;BMP180;6526;54.312;13.092;2023-11-21T09:16:31;102066.00;;;9.80
12918;BMP180;6526;54.312;13.092;2023-11-21T09:18:58;102066.00;;;9.80
12918;BMP180;6526;54.312;13.092;2023-11-21T09:21:24;102016.00;;;9.80
12918;BMP180;6526;54.312;13.092;2023-11-21T09:23:51;102075.00;;;9.80
12918;BMP180;6526;54.312;13.092;2023-11-21T09:26:17;102077.00;;;9.70
12918;BMP180;6526;54.312;13.092;2023-11-21T09:28:46;102086.00;;;9.70
12918;BMP180;6526;54.312;13.092;2023-11-21T09:31:13;102097.00;;;9.70
12918;BMP180;6526;54.312;13.092;2023-11-21T09:33:42;102083.00;;;9.60
12918;BMP180;6526;54.312;13.092;2023-11-21T09:36:12;102085.00;;;9.80
12918;BMP180;6526;54.312;13.092;2023-11-21T09:38:39;102089.00;;;9.70
12918;BMP180;6526;54.312;13.092;2023-11-21T09:41:11;102094.00;;;9.80
12918;BMP180;6526;54.312;13.092;2023-11-21T09:43:44;102086.00;;;9.80
12918;BMP180;6526;54.312;13.092;2023-11-21T09:46:12;102103.00;;;9.80
12918;BMP180;6526;54.312;13.092;2023-11-21T09:48:42;102114.00;;;9.80
12918;BMP180;6526;54.312;13.092;2023-11-21T09:51:10;102111.00;;;9.70
12918;BMP180;6526;54.312;13.092;2023-11-21T09:53:36;102118.00;;;9.90
12918;BMP180;6526;54.312;13.092;2023-11-21T09:56:04;102111.00;;;9.90
12918;BMP180;6526;54.312;13.092;2023-11-21T09:58:31;102107.00;;;9.90
12918;BMP180;6526;54.312;13.092;2023-11-21T10:01:00;102127.00;;;9.90
12918;BMP180;6526;54.312;13.092;2023-11-21T10:03:28;102120.00;;;10.00
12918;BMP180;6526;54.312;13.092;2023-11-21T10:05:57;102127.00;;;10.00
12918;BMP180;6526;54.312;13.092;2023-11-21T10:08:27;102127.00;;;10.00
12918;BMP180;6526;54.312;13.092;2023-11-21T10:10:54;102144.00;;;10.00
12918;BMP180;6526;54.312;13.092;2023-11-21T10:13:21;102139.00;;;10.00
12918;BMP180;6526;54.312;13.092;2023-11-21T10:15:51;102145.00;;;10.00
12918;BMP180;6526;54.312;13.092;2023-11-21T10:18:17;102153.00;;;10.10
12918;BMP180;6526;54.312;13.092;2023-11-21T10:20:45;102153.00;;;10.00
12918;BMP180;6526;54.312;13.092;2023-11-21T10:23:19;102156.00;;;10.00
12918;BMP180;6526;54.312;13.092;2023-11-21T10:25:45;102157.00;;;10.00
12918;BMP180;6526;54.312;13.092;2023-11-21T10:28:11;102154.00;;;10.00
12918;BMP180;6526;54.312;13.092;2023-11-21T10:30:38;102162.00;;;10.00
12918;BMP180;6526;54.312;13.092;2023-11-21T10:33:05;102156.00;;;10.00
12918;BMP180;6526;54.312;13.092;2023-11-21T10:35:48;102161.00;;;9.90
12918;BMP180;6526;54.312;13.092;2023-11-21T10:38:19;102167.00;;;9.90
12918;BMP180;6526;54.312;13.092;2023-11-21T10:40:48;102162.00;;;9.90
12918;BMP180;6526;54.312;13.092;2023-11-21T10:43:15;102163.00;;;9.90
12918;BMP180;6526;54.312;13.092;2023-11-21T10:45:41;102113.00;;;9.90
12918;BMP180;6526;54.312;13.092;2023-11-21T10:48:09;102163.00;;;9.80
12918;BMP180;6526;54.312;13.092;2023-11-21T10:50:36;102164.00;;;9.80
12918;BMP180;6526;54.312;13.092;2023-11-21T10:53:03;102168.00;;;9.90
12918;BMP180;6526;54.312;13.092;2023-11-21T10:55:31;102172.00;;;9.80
12918;BMP180;6526;54.312;13.092;2023-11-21T10:57:59;102187.00;;;9.90
12918;BMP180;6526;54.312;13.092;2023-11-21T11:00:29;102185.00;;;9.90
12918;BMP180;6526;54.312;13.092;2023-11-21T11:02:55;102194.00;;;10.00
12918;BMP180;6526;54.312;13.092;2023-11-21T11:05:23;102197.00;;;10.00
12918;BMP180;6526;54.312;13.092;2023-11-21T11:08:08;102214.00;;;10.00
12918;BMP180;6526;54.312;13.092;2023-11-21T11:10:34;102221.00;;;9.50
12918;BMP180;6526;54.312;13.092;2023-11-21T11:13:00;102226.00;;;9.30
12918;BMP180;6526;54.312;13.092;2023-11-21T11:15:28;102219.00;;;9.10
12918;BMP180;6526;54.312;13.092;2023-11-21T11:17:55;102221.00;;;9.00
12918;BMP180;6526;54.312;13.092;2023-11-21T11:20:32;102202.00;;;8.90
12918;BMP180;6526;54.312;13.092;2023-11-21T11:26:24;102228.00;;;8.80
12918;BMP180;6526;54.312;13.092;2023-11-21T11:29:14;102231.00;;;8.80
12918;BMP180;6526;54.312;13.092;2023-11-21T11:31:58;102225.00;;;8.90
12918;BMP180;6526;54.312;13.092;2023-11-21T11:37:02;102230.00;;;8.90
12918;BMP180;6526;54.312;13.092;2023-11-21T11:39:40;102225.00;;;8.90
12918;BMP180;6526;54.312;13.092;2023-11-21T11:42:18;102237.00;;;9.10
12918;BMP180;6526;54.312;13.092;2023-11-21T11:44:46;102234.00;;;9.10
12918;BMP180;6526;54.312;13.092;2023-11-21T11:47:16;102231.00;;;9.20
12918;BMP180;6526;54.312;13.092;2023-11-21T11:50:00;102229.00;;;9.20
12918;BMP180;6526;54.312;13.092;2023-11-21T11:52:43;102240.00;;;9.20
12918;BMP180;6526;54.312;13.092;2023-11-21T11:55:11;102244.00;;;9.20
12918;BMP180;6526;54.312;13.092;2023-11-21T11:57:38;102255.00;;;9.30
12918;BMP180;6526;54.312;13.092;2023-11-21T12:02:39;102272.00;;;9.30
12918;BMP180;6526;54.312;13.092;2023-11-21T12:05:12;102262.00;;;9.10
12918;BMP180;6526;54.312;13.092;2023-11-21T12:07:49;102271.00;;;9.10
12918;BMP180;6526;54.312;13.092;2023-11-21T12:10:17;102271.00;;;9.00
12918;BMP180;6526;54.312;13.092;2023-11-21T12:12:47;102284.00;;;9.00
12918;BMP180;6526;54.312;13.092;2023-11-21T12:15:14;102276.00;;;8.60
12918;BMP180;6526;54.312;13.092;2023-11-21T12:17:43;102288.00;;;8.70
12918;BMP180;6526;54.312;13.092;2023-11-21T12:20:11;102281.00;;;8.70
12918;BMP180;6526;54.312;13.092;2023-11-21T12:22:46;102299.00;;;8.60
12918;BMP180;6526;54.312;13.092;2023-11-21T12:25:21;102308.00;;;8.50
12918;BMP180;6526;54.312;13.092;2023-11-21T12:27:51;102311.00;;;8.60
12918;BMP180;6526;54.312;13.092;2023-11-21T12:30:19;102306.00;;;8.60
12918;BMP180;6526;54.312;13.092;2023-11-21T12:32:51;102311.00;;;8.70
12918;BMP180;6526;54.312;13.092;2023-11-21T12:35:19;102302.00;;;8.70
12918;BMP180;6526;54.312;13.092;2023-11-21T12:37:46;102316.00;;;8.60
12918;BMP180;6526;54.312;13.092;2023-11-21T12:40:13;102319.00;;;8.70
12918;BMP180;6526;54.312;13.092;2023-11-21T12:43:01;102325.00;;;8.70
12918;BMP180;6526;54.312;13.092;2023-11-21T12:45:30;102319.00;;;8.70
12918;BMP180;6526;54.312;13.092;2023-11-21T12:47:59;102328.00;;;8.60
12918;BMP180;6526;54.312;13.092;2023-11-21T12:50:27;102330.00;;;8.50
12918;BMP180;6526;54.312;13.092;2023-11-21T12:53:01;102327.00;;;8.50
12918;BMP180;6526;54.312;13.092;2023-11-21T12:55:31;102337.00;;;8.50
12918;BMP180;6526;54.312;13.092;2023-11-21T12:57:57;102351.00;;;8.50
12918;BMP180;6526;54.312;13.092;2023-11-21T13:00:33;102361.00;;;8.40
12918;BMP180;6526;54.312;13.092;2023-11-21T13:03:07;102354.00;;;8.20
12918;BMP180;6526;54.312;13.092;2023-11-21T13:05:35;102348.00;;;8.10
12918;BMP180;6526;54.312;13.092;2023-11-21T13:08:04;102347.00;;;8.00
12918;BMP180;6526;54.312;13.092;2023-11-21T13:10:34;102341.00;;;8.00
12918;BMP180;6526;54.312;13.092;2023-11-21T13:13:04;102343.00;;;8.10
12918;BMP180;6526;54.312;13.092;2023-11-21T13:15:48;102350.00;;;8.10
12918;BMP180;6526;54.312;13.092;2023-11-21T13:18:15;102349.00;;;8.20
12918;BMP180;6526;54.312;13.092;2023-11-21T13:20:42;102361.00;;;8.20
12918;BMP180;6526;54.312;13.092;2023-11-21T13:23:12;102370.00;;;8.30
12918;BMP180;6526;54.312;13.092;2023-11-21T13:25:39;102365.00;;;8.30
12918;BMP180;6526;54.312;13.092;2023-11-21T13:28:07;102367.00;;;8.30
12918;BMP180;6526;54.312;13.092;2023-11-21T13:30:35;102391.00;;;8.30
12918;BMP180;6526;54.312;13.092;2023-11-21T13:33:05;102395.00;;;8.30
12918;BMP180;6526;54.312;13.092;2023-11-21T13:35:37;102400.00;;;8.30
12918;BMP180;6526;54.312;13.092;2023-11-21T13:38:09;102412.00;;;8.10
12918;BMP180;6526;54.312;13.092;2023-11-21T13:40:36;102418.00;;;8.00
12918;BMP180;6526;54.312;13.092;2023-11-21T13:43:12;102412.00;;;8.10
12918;BMP180;6526;54.312;13.092;2023-11-21T13:45:40;102438.00;;;8.10
12918;BMP180;6526;54.312;13.092;2023-11-21T13:48:08;102436.00;;;8.00
12918;BMP180;6526;54.312;13.092;2023-11-21T13:50:48;102423.00;;;7.90
12918;BMP180;6526;54.312;13.092;2023-11-21T13:53:32;102434.00;;;7.90
12918;BMP180;6526;54.312;13.092;2023-11-21T13:56:02;102425.00;;;7.80
12918;BMP180;6526;54.312;13.092;2023-11-21T13:58:28;102419.00;;;7.80
12918;BMP180;6526;54.312;13.092;2023-11-21T14:01:17;102408.00;;;7.80
12918;BMP180;6526;54.312;13.092;2023-11-21T14:03:49;102405.00;;;8.00
12918;BMP180;6526;54.312;13.092;2023-11-21T14:06:22;102413.00;;;8.00
12918;BMP180;6526;54.312;13.092;2023-11-21T14:08:54;102415.00;;;8.00
12918;BMP180;6526;54.312;13.092;2023-11-21T14:11:22;102417.00;;;8.10
12918;BMP180;6526;54.312;13.092;2023-11-21T14:13:48;102423.00;;;8.10
12918;BMP180;6526;54.312;13.092;2023-11-21T14:16:15;102432.00;;;8.10